createdAt,value
2016-12-25T00:00:12.817Z,0
2016-12-25T00:01:23.381Z,0
2016-12-25T00:02:34.331Z,0
2016-12-25T00:03:45.243Z,0
2016-12-25T00:04:55.801Z,0
2016-12-25T00:06:06.710Z,0
2016-12-25T00:07:17.275Z,0
2016-12-25T00:08:28.232Z,0
2016-12-25T00:09:39.140Z,0
2016-12-25T00:10:50.045Z,0
2016-12-25T00:12:00.606Z,0
2016-12-25T00:13:11.516Z,0
2016-12-25T00:14:22.476Z,0
2016-12-25T00:15:33.378Z,0
2016-12-25T00:16:44.287Z,0
2016-12-25T00:17:54.852Z,0
2016-12-25T00:19:05.757Z,0
2016-12-25T00:20:16.374Z,0
2016-12-25T00:21:27.274Z,0
2016-12-25T00:22:38.182Z,0
2016-12-25T00:23:48.745Z,0
2016-12-25T00:24:59.654Z,0
2016-12-25T00:26:10.615Z,0
2016-12-25T00:27:21.532Z,0
2016-12-25T00:28:32.121Z,0
2016-12-25T00:29:43.030Z,0
2016-12-25T00:30:53.931Z,0
2016-12-25T00:32:04.920Z,0
2016-12-25T00:33:15.486Z,0
2016-12-25T00:34:26.398Z,0
2016-12-25T00:35:37.311Z,0
2016-12-25T00:36:48.223Z,0
2016-12-25T00:37:59.178Z,0
2016-12-25T00:39:09.403Z,0
2016-12-25T00:40:20.304Z,0
2016-12-25T00:41:30.870Z,0
2016-12-25T00:42:41.439Z,0
2016-12-25T00:43:52.052Z,0
2016-12-25T00:45:02.257Z,0
2016-12-25T00:46:13.163Z,0
2016-12-25T00:47:24.108Z,0
2016-12-25T00:48:34.669Z,0
2016-12-25T00:49:45.622Z,0
2016-12-25T00:50:56.531Z,0
2016-12-25T00:52:07.100Z,0
2016-12-25T00:53:17.658Z,0
2016-12-25T00:54:28.559Z,0
2016-12-25T00:55:39.516Z,0
2016-12-25T00:56:49.737Z,0
2016-12-25T00:58:00.638Z,0
2016-12-25T00:59:11.200Z,0
2016-12-25T01:00:22.105Z,0
2016-12-25T01:01:33.062Z,0
2016-12-25T01:02:43.964Z,0
2016-12-25T01:03:54.869Z,0
2016-12-25T01:05:05.778Z,0
2016-12-25T01:06:16.691Z,0
2016-12-25T01:07:27.657Z,0
2016-12-25T01:08:38.594Z,0
2016-12-25T01:09:49.155Z,0
2016-12-25T01:10:59.720Z,0
2016-12-25T01:12:10.630Z,0
2016-12-25T01:13:21.242Z,0
2016-12-25T01:14:31.808Z,0
2016-12-25T01:15:42.713Z,0
2016-12-25T01:16:53.618Z,0
2016-12-25T01:18:04.524Z,0
2016-12-25T01:19:15.145Z,0
2016-12-25T01:20:26.078Z,0
2016-12-25T01:21:36.643Z,0
2016-12-25T01:22:47.209Z,0
2016-12-25T01:23:57.777Z,0
2016-12-25T01:25:08.047Z,0
2016-12-25T01:26:18.604Z,0
2016-12-25T01:27:29.513Z,0
2016-12-25T01:28:40.423Z,0
2016-12-25T01:29:50.983Z,0
2016-12-25T01:31:01.593Z,0
2016-12-25T01:32:12.502Z,0
2016-12-25T01:33:23.416Z,0
2016-12-25T01:34:34.320Z,0
2016-12-25T01:35:45.234Z,0
2016-12-25T01:36:56.199Z,0
2016-12-25T01:38:07.109Z,0
2016-12-25T01:39:17.674Z,0
2016-12-25T01:40:28.603Z,0
2016-12-25T01:41:39.512Z,0
2016-12-25T01:42:50.470Z,0
2016-12-25T01:44:01.378Z,0
2016-12-25T01:45:11.944Z,0
2016-12-25T01:46:22.509Z,0
2016-12-25T01:47:33.426Z,0
2016-12-25T01:48:44.383Z,0
2016-12-25T01:49:54.941Z,0
2016-12-25T01:51:05.510Z,0
2016-12-25T01:52:16.423Z,0
2016-12-25T01:53:27.336Z,0
2016-12-25T01:54:38.401Z,0
2016-12-25T01:55:49.315Z,0
2016-12-25T01:56:59.880Z,0
2016-12-25T01:58:10.789Z,0
2016-12-25T01:59:21.342Z,0
2016-12-25T02:00:32.309Z,0
2016-12-25T02:01:42.877Z,0
2016-12-25T02:02:53.782Z,0
2016-12-25T02:04:04.343Z,0
2016-12-25T02:05:14.901Z,0
2016-12-25T02:06:25.510Z,0
2016-12-25T02:07:36.075Z,0
2016-12-25T02:08:47.001Z,0
2016-12-25T02:09:57.905Z,0
2016-12-25T02:11:08.474Z,0
2016-12-25T02:12:19.432Z,0
2016-12-25T02:13:30.345Z,0
2016-12-25T02:14:41.258Z,0
2016-12-25T02:15:51.820Z,0
2016-12-25T02:17:02.725Z,0
2016-12-25T02:18:13.346Z,0
2016-12-25T02:19:23.911Z,0
2016-12-25T02:20:34.817Z,0
2016-12-25T02:21:45.725Z,0
2016-12-25T02:22:56.291Z,0
2016-12-25T02:24:07.252Z,0
2016-12-25T02:25:17.813Z,0
2016-12-25T02:26:28.730Z,0
2016-12-25T02:27:39.628Z,0
2016-12-25T02:28:50.537Z,0
2016-12-25T02:30:01.147Z,0
2016-12-25T02:31:12.060Z,0
2016-12-25T02:32:22.993Z,0
2016-12-25T02:33:33.570Z,0
2016-12-25T02:34:44.483Z,0
2016-12-25T02:35:55.089Z,0
2016-12-25T02:37:05.994Z,0
2016-12-25T02:38:16.903Z,0
2016-12-25T02:39:27.472Z,0
2016-12-25T02:40:38.069Z,0
2016-12-25T02:41:49.058Z,0
2016-12-25T02:42:59.291Z,0
2016-12-25T02:44:10.201Z,0
2016-12-25T02:45:21.122Z,0
2016-12-25T02:46:32.031Z,0
2016-12-25T02:47:42.984Z,0
2016-12-25T02:48:53.889Z,0
2016-12-25T02:50:04.485Z,0
2016-12-25T02:51:15.395Z,0
2016-12-25T02:52:26.297Z,0
2016-12-25T02:53:37.254Z,0
2016-12-25T02:54:47.835Z,0
2016-12-25T02:55:58.744Z,0
2016-12-25T02:57:09.318Z,0
2016-12-25T02:58:20.241Z,0
2016-12-25T02:59:31.196Z,0
2016-12-25T03:00:41.753Z,0
2016-12-25T03:01:52.666Z,0
2016-12-25T03:03:03.227Z,0
2016-12-25T03:04:14.141Z,0
2016-12-25T03:05:25.150Z,0
2016-12-25T03:06:36.064Z,0
2016-12-25T03:07:46.973Z,0
2016-12-25T03:08:57.874Z,0
2016-12-25T03:10:08.779Z,0
2016-12-25T03:11:19.728Z,0
2016-12-25T03:12:30.321Z,0
2016-12-25T03:13:40.883Z,0
2016-12-25T03:14:51.795Z,0
2016-12-25T03:16:02.701Z,0
2016-12-25T03:17:13.306Z,0
2016-12-25T03:18:23.872Z,0
2016-12-25T03:19:34.441Z,0
2016-12-25T03:20:45.346Z,0
2016-12-25T03:21:56.251Z,0
2016-12-25T03:23:07.204Z,0
2016-12-25T03:24:17.802Z,0
2016-12-25T03:25:28.371Z,0
2016-12-25T03:26:39.284Z,0
2016-12-25T03:27:49.861Z,0
2016-12-25T03:29:00.478Z,0
2016-12-25T03:30:11.036Z,0
2016-12-25T03:31:21.945Z,0
2016-12-25T03:32:32.850Z,0
2016-12-25T03:33:43.419Z,0
2016-12-25T03:34:54.381Z,0
2016-12-25T03:36:05.310Z,0
2016-12-25T03:37:15.875Z,0
2016-12-25T03:38:26.436Z,0
2016-12-25T03:39:37.001Z,0
2016-12-25T03:40:47.967Z,0
2016-12-25T03:41:58.536Z,0
2016-12-25T03:43:09.449Z,0
2016-12-25T03:44:20.355Z,0
2016-12-25T03:45:30.924Z,0
2016-12-25T03:46:41.213Z,0
2016-12-25T03:47:51.778Z,0
2016-12-25T03:49:02.379Z,0
2016-12-25T03:50:12.946Z,0
2016-12-25T03:51:23.846Z,0
2016-12-25T03:52:34.807Z,0
2016-12-25T03:53:45.384Z,0
2016-12-25T03:54:55.953Z,0
2016-12-25T03:56:06.863Z,0
2016-12-25T03:57:17.768Z,0
2016-12-25T03:58:28.385Z,0
2016-12-25T03:59:39.290Z,0
2016-12-25T04:00:49.856Z,0
2016-12-25T04:02:00.429Z,0
2016-12-25T04:03:10.994Z,0
2016-12-25T04:04:21.951Z,0
2016-12-25T04:05:32.520Z,0
2016-12-25T04:06:43.089Z,0
2016-12-25T04:07:53.654Z,0
2016-12-25T04:09:04.563Z,0
2016-12-25T04:10:15.176Z,0
2016-12-25T04:11:25.737Z,0
2016-12-25T04:12:36.302Z,0
2016-12-25T04:13:47.207Z,0
2016-12-25T04:14:58.112Z,0
2016-12-25T04:16:08.722Z,0
2016-12-25T04:17:19.287Z,0
2016-12-25T04:18:30.195Z,0
2016-12-25T04:19:40.757Z,0
2016-12-25T04:20:51.326Z,0
2016-12-25T04:22:02.287Z,0
2016-12-25T04:23:13.193Z,0
2016-12-25T04:24:23.762Z,0
2016-12-25T04:25:33.987Z,0
2016-12-25T04:26:44.900Z,0
2016-12-25T04:27:55.502Z,0
2016-12-25T04:29:06.419Z,0
2016-12-25T04:30:17.340Z,0
2016-12-25T04:31:27.909Z,0
2016-12-25T04:32:38.811Z,0
2016-12-25T04:33:49.428Z,0
2016-12-25T04:35:00.348Z,0
2016-12-25T04:36:10.914Z,0
2016-12-25T04:37:21.139Z,0
2016-12-25T04:38:31.708Z,0
2016-12-25T04:39:42.325Z,0
2016-12-25T04:40:53.233Z,0
2016-12-25T04:42:04.144Z,0
2016-12-25T04:43:14.709Z,0
2016-12-25T04:44:25.615Z,0
2016-12-25T04:45:36.296Z,0
2016-12-25T04:46:46.897Z,0
2016-12-25T04:47:57.805Z,0
2016-12-25T04:49:08.369Z,0
2016-12-25T04:50:19.280Z,0
2016-12-25T04:51:30.237Z,0
2016-12-25T04:52:40.799Z,0
2016-12-25T04:53:51.356Z,0
2016-12-25T04:55:01.917Z,0
2016-12-25T04:56:12.826Z,0
2016-12-25T04:57:23.431Z,0
2016-12-25T04:58:34.345Z,0
2016-12-25T04:59:44.934Z,0
2016-12-25T05:00:55.499Z,0
2016-12-25T05:02:06.420Z,0
2016-12-25T05:03:17.378Z,0
2016-12-25T05:04:27.939Z,0
2016-12-25T05:05:38.864Z,0
2016-12-25T05:06:49.429Z,0
2016-12-25T05:07:59.996Z,0
2016-12-25T05:09:10.955Z,0
2016-12-25T05:10:21.857Z,0
2016-12-25T05:11:32.763Z,0
2016-12-25T05:12:43.332Z,0
2016-12-25T05:13:54.237Z,0
2016-12-25T05:15:05.246Z,0
2016-12-25T05:16:15.811Z,0
2016-12-25T05:17:26.744Z,0
2016-12-25T05:18:37.310Z,0
2016-12-25T05:19:48.223Z,0
2016-12-25T05:20:59.168Z,0
2016-12-25T05:22:09.737Z,0
2016-12-25T05:23:20.294Z,0
2016-12-25T05:24:31.200Z,0
2016-12-25T05:25:41.793Z,0
2016-12-25T05:26:52.748Z,0
2016-12-25T05:28:03.311Z,0
2016-12-25T05:29:14.220Z,0
2016-12-25T05:30:25.138Z,0
2016-12-25T05:31:35.699Z,0
2016-12-25T05:32:46.309Z,0
2016-12-25T05:33:56.879Z,0
2016-12-25T05:35:07.791Z,0
2016-12-25T05:36:18.716Z,0
2016-12-25T05:37:29.621Z,0
2016-12-25T05:38:40.230Z,0
2016-12-25T05:39:51.139Z,0
2016-12-25T05:41:01.720Z,0
2016-12-25T05:42:12.286Z,0
2016-12-25T05:43:23.195Z,0
2016-12-25T05:44:34.153Z,0
2016-12-25T05:45:44.717Z,0
2016-12-25T05:46:55.643Z,0
2016-12-25T05:48:06.554Z,0
2016-12-25T05:49:17.497Z,0
2016-12-25T05:50:28.454Z,0
2016-12-25T05:51:39.020Z,0
2016-12-25T05:52:49.933Z,0
2016-12-25T05:54:00.498Z,0
2016-12-25T05:55:11.071Z,0
2016-12-25T05:56:21.688Z,0
2016-12-25T05:57:32.604Z,0
2016-12-25T05:58:43.179Z,0
2016-12-25T05:59:53.732Z,0
2016-12-25T06:01:04.669Z,0
2016-12-25T06:02:15.620Z,0
2016-12-25T06:03:26.531Z,0
2016-12-25T06:04:37.100Z,0
2016-12-25T06:05:47.674Z,0
2016-12-25T06:06:58.587Z,0
2016-12-25T06:08:09.561Z,0
2016-12-25T06:09:20.469Z,0
2016-12-25T06:10:31.375Z,0
2016-12-25T06:11:42.284Z,0
2016-12-25T06:12:52.845Z,0
2016-12-25T06:14:03.806Z,0
2016-12-25T06:15:14.367Z,0
2016-12-25T06:16:25.273Z,0
2016-12-25T06:17:36.190Z,0
2016-12-25T06:18:47.103Z,0
2016-12-25T06:19:57.716Z,0
2016-12-25T06:21:08.281Z,0
2016-12-25T06:22:18.846Z,0
2016-12-25T06:23:29.760Z,0
2016-12-25T06:24:40.729Z,0
2016-12-25T06:25:51.686Z,0
2016-12-25T06:27:02.595Z,0
2016-12-25T06:28:13.157Z,0
2016-12-25T06:29:23.394Z,0
2016-12-25T06:30:33.967Z,0
2016-12-25T06:31:44.920Z,0
2016-12-25T06:32:55.509Z,0
2016-12-25T06:34:06.063Z,0
2016-12-25T06:35:16.631Z,0
2016-12-25T06:36:27.549Z,0
2016-12-25T06:37:38.166Z,0
2016-12-25T06:38:48.735Z,0
2016-12-25T06:39:59.652Z,0
2016-12-25T06:41:10.605Z,0
2016-12-25T06:42:21.160Z,0
2016-12-25T06:43:31.772Z,0
2016-12-25T06:44:42.685Z,0
2016-12-25T06:45:53.250Z,0
2016-12-25T06:47:03.819Z,0
2016-12-25T06:48:14.729Z,0
2016-12-25T06:49:25.342Z,0
2016-12-25T06:50:36.255Z,0
2016-12-25T06:51:47.168Z,0
2016-12-25T06:52:58.077Z,0
2016-12-25T06:54:08.651Z,0
2016-12-25T06:55:19.259Z,0
2016-12-25T06:56:29.849Z,0
2016-12-25T06:57:40.410Z,0
2016-12-25T06:58:50.999Z,0
2016-12-25T07:00:01.912Z,0
2016-12-25T07:01:12.889Z,0
2016-12-25T07:02:23.807Z,0
2016-12-25T07:03:34.371Z,0
2016-12-25T07:04:45.285Z,0
2016-12-25T07:05:56.182Z,0
2016-12-25T07:07:07.163Z,0
2016-12-25T07:08:18.076Z,0
2016-12-25T07:09:28.986Z,0
2016-12-25T07:10:39.894Z,0
2016-12-25T07:11:50.812Z,0
2016-12-25T07:13:01.077Z,0
2016-12-25T07:14:11.643Z,0
2016-12-25T07:15:22.551Z,0
2016-12-25T07:16:33.117Z,0
2016-12-25T07:17:43.682Z,0
2016-12-25T07:18:54.298Z,0
2016-12-25T07:20:05.208Z,0
2016-12-25T07:21:16.121Z,0
2016-12-25T07:22:27.030Z,0
2016-12-25T07:23:37.595Z,0
2016-12-25T07:24:48.573Z,0
2016-12-25T07:25:59.142Z,0
2016-12-25T07:27:10.059Z,0
2016-12-25T07:28:20.624Z,0
2016-12-25T07:29:31.193Z,0
2016-12-25T07:30:41.815Z,0
2016-12-25T07:31:52.383Z,0
2016-12-25T07:33:02.597Z,0
2016-12-25T07:34:13.162Z,0
2016-12-25T07:35:23.727Z,0
2016-12-25T07:36:34.712Z,0
2016-12-25T07:37:45.274Z,0
2016-12-25T07:38:56.183Z,0
2016-12-25T07:40:06.744Z,0
2016-12-25T07:41:17.665Z,0
2016-12-25T07:42:28.618Z,0
2016-12-25T07:43:39.535Z,0
2016-12-25T07:44:50.452Z,0
2016-12-25T07:46:01.358Z,0
2016-12-25T07:47:12.270Z,0
2016-12-25T07:48:22.912Z,0
2016-12-25T07:49:33.821Z,0
2016-12-25T07:50:44.034Z,0
2016-12-25T07:51:54.599Z,0
2016-12-25T07:53:05.173Z,0
2016-12-25T07:54:16.146Z,0
2016-12-25T07:55:26.715Z,0
2016-12-25T07:56:37.624Z,0
2016-12-25T07:57:47.841Z,0
2016-12-25T07:58:58.406Z,0
2016-12-25T08:00:09.019Z,0
2016-12-25T08:01:19.924Z,0
2016-12-25T08:02:30.833Z,0
2016-12-25T08:03:41.759Z,0
2016-12-25T08:04:52.320Z,0
2016-12-25T08:06:02.941Z,0
2016-12-25T08:07:13.846Z,0
2016-12-25T08:08:24.408Z,0
2016-12-25T08:09:35.328Z,0
2016-12-25T08:10:46.230Z,0
2016-12-25T08:11:56.850Z,0
2016-12-25T08:13:07.764Z,0
2016-12-25T08:14:18.669Z,0
2016-12-25T08:15:29.574Z,0
2016-12-25T08:16:40.139Z,0
2016-12-25T08:17:51.096Z,0
2016-12-25T08:19:02.009Z,0
2016-12-25T08:20:12.574Z,0
2016-12-25T08:21:23.139Z,0
2016-12-25T08:22:33.705Z,0
2016-12-25T08:23:44.674Z,0
2016-12-25T08:24:55.239Z,0
2016-12-25T08:26:06.144Z,0
2016-12-25T08:27:16.709Z,0
2016-12-25T08:28:27.274Z,0
2016-12-25T08:29:37.887Z,0
2016-12-25T08:30:48.452Z,0
2016-12-25T08:31:59.357Z,0
2016-12-25T08:33:09.926Z,0
2016-12-25T08:34:20.488Z,0
2016-12-25T08:35:30.756Z,0
2016-12-25T08:36:41.321Z,0
2016-12-25T08:37:51.890Z,0
2016-12-25T08:39:02.807Z,0
2016-12-25T08:40:13.380Z,0
2016-12-25T08:41:23.989Z,0
2016-12-25T08:42:34.902Z,0
2016-12-25T08:43:45.467Z,0
2016-12-25T08:44:56.033Z,0
2016-12-25T08:46:06.938Z,0
2016-12-25T08:47:17.543Z,0
2016-12-25T08:48:28.464Z,0
2016-12-25T08:49:39.033Z,5
2016-12-25T08:50:49.938Z,0
2016-12-25T08:52:00.843Z,5
2016-12-25T08:53:11.809Z,5
2016-12-25T08:54:22.382Z,0
2016-12-25T08:55:32.943Z,5
2016-12-25T08:56:43.852Z,5
2016-12-25T08:57:54.413Z,5
2016-12-25T08:59:05.062Z,5
2016-12-25T09:00:15.968Z,0
2016-12-25T09:01:26.523Z,5
2016-12-25T09:02:37.430Z,5
2016-12-25T09:03:47.991Z,5
2016-12-25T09:04:58.952Z,10
2016-12-25T09:06:09.862Z,5
2016-12-25T09:07:20.431Z,10
2016-12-25T09:08:31.364Z,10
2016-12-25T09:09:42.277Z,5
2016-12-25T09:10:53.227Z,5
2016-12-25T09:12:03.792Z,10
2016-12-25T09:13:14.713Z,5
2016-12-25T09:14:25.626Z,10
2016-12-25T09:15:36.187Z,10
2016-12-25T09:16:47.160Z,10
2016-12-25T09:17:58.074Z,5
2016-12-25T09:19:08.991Z,10
2016-12-25T09:20:19.896Z,10
2016-12-25T09:21:30.810Z,10
2016-12-25T09:22:41.426Z,10
2016-12-25T09:23:52.000Z,10
2016-12-25T09:25:02.557Z,15
2016-12-25T09:26:13.470Z,10
2016-12-25T09:27:24.039Z,10
2016-12-25T09:28:34.657Z,15
2016-12-25T09:29:45.562Z,20
2016-12-25T09:30:56.475Z,15
2016-12-25T09:32:07.068Z,10
2016-12-25T09:33:17.997Z,10
2016-12-25T09:34:28.611Z,15
2016-12-25T09:35:39.524Z,15
2016-12-25T09:36:50.433Z,15
2016-12-25T09:38:01.366Z,15
2016-12-25T09:39:11.940Z,15
2016-12-25T09:40:22.897Z,20
2016-12-25T09:41:33.770Z,20
2016-12-25T09:42:45.352Z,15
2016-12-25T09:43:56.177Z,10
2016-12-25T09:45:08.334Z,15
2016-12-25T09:46:20.343Z,15
2016-12-25T09:47:30.861Z,15
2016-12-25T09:48:41.878Z,15
2016-12-25T09:49:52.447Z,20
2016-12-25T09:51:03.800Z,20
2016-12-25T09:52:14.653Z,20
2016-12-25T09:53:25.215Z,20
2016-12-25T09:54:36.572Z,15
2016-12-25T09:55:47.705Z,15
2016-12-25T09:56:58.630Z,15
2016-12-25T09:58:09.597Z,20
2016-12-25T09:59:21.696Z,20
2016-12-25T10:00:32.392Z,15
2016-12-25T10:01:43.315Z,15
2016-12-25T10:02:55.124Z,20
2016-12-25T10:04:07.017Z,15
2016-12-25T10:05:18.723Z,15
2016-12-25T10:06:29.503Z,10
2016-12-25T10:07:40.109Z,15
2016-12-25T10:08:51.874Z,15
2016-12-25T10:10:02.239Z,15
2016-12-25T10:11:13.368Z,35
2016-12-25T10:12:24.025Z,35
2016-12-25T10:13:35.071Z,35
2016-12-25T10:14:45.467Z,35
2016-12-25T10:15:56.092Z,40
2016-12-25T10:17:07.010Z,35
2016-12-25T10:18:17.923Z,40
2016-12-25T10:19:28.480Z,40
2016-12-25T10:20:39.241Z,40
2016-12-25T10:21:49.395Z,45
2016-12-25T10:23:01.292Z,40
2016-12-25T10:24:12.348Z,40
2016-12-25T10:25:23.275Z,40
2016-12-25T10:26:34.227Z,30
2016-12-25T10:27:46.028Z,30
2016-12-25T10:28:57.705Z,30
2016-12-25T10:30:07.810Z,25
2016-12-25T10:31:18.376Z,30
2016-12-25T10:32:28.649Z,30
2016-12-25T10:33:39.562Z,30
2016-12-25T10:34:50.499Z,30
2016-12-25T10:36:01.061Z,25
2016-12-25T10:37:11.974Z,30
2016-12-25T10:38:22.931Z,25
2016-12-25T10:39:33.492Z,25
2016-12-25T10:40:44.406Z,30
2016-12-25T10:41:54.971Z,45
2016-12-25T10:43:05.536Z,35
2016-12-25T10:44:16.301Z,35
2016-12-25T10:45:26.867Z,30
2016-12-25T10:46:37.436Z,30
2016-12-25T10:47:48.341Z,35
2016-12-25T10:48:58.911Z,30
2016-12-25T10:50:09.179Z,25
2016-12-25T10:51:20.097Z,30
2016-12-25T10:52:31.014Z,30
2016-12-25T10:53:41.575Z,25
2016-12-25T10:54:52.140Z,30
2016-12-25T10:56:02.781Z,30
2016-12-25T10:57:13.683Z,30
2016-12-25T10:58:24.588Z,35
2016-12-25T10:59:35.509Z,35
2016-12-25T11:00:46.419Z,45
2016-12-25T11:01:57.068Z,40
2016-12-25T11:03:07.973Z,35
2016-12-25T11:04:18.535Z,40
2016-12-25T11:05:29.447Z,35
2016-12-25T11:06:40.352Z,35
2016-12-25T11:07:51.324Z,35
2016-12-25T11:09:02.235Z,30
2016-12-25T11:10:13.136Z,25
2016-12-25T11:11:23.698Z,20
2016-12-25T11:12:34.615Z,25
2016-12-25T11:13:45.576Z,25
2016-12-25T11:14:56.134Z,30
2016-12-25T11:16:07.050Z,40
2016-12-25T11:17:17.961Z,35
2016-12-25T11:18:28.697Z,30
2016-12-25T11:19:39.666Z,35
2016-12-25T11:20:50.268Z,30
2016-12-25T11:22:01.253Z,25
2016-12-25T11:23:11.847Z,35
2016-12-25T11:24:22.183Z,30
2016-12-25T11:25:33.141Z,25
2016-12-25T11:26:44.047Z,30
2016-12-25T11:27:54.719Z,25
2016-12-25T11:29:05.636Z,40
2016-12-25T11:30:16.541Z,35
2016-12-25T11:31:27.783Z,35
2016-12-25T11:32:38.696Z,35
2016-12-25T11:33:49.617Z,35
2016-12-25T11:35:00.502Z,30
2016-12-25T11:36:10.725Z,25
2016-12-25T11:37:21.349Z,35
2016-12-25T11:38:32.061Z,35
2016-12-25T11:39:42.970Z,30
2016-12-25T11:40:53.548Z,30
2016-12-25T11:42:04.102Z,30
2016-12-25T11:43:15.055Z,30
2016-12-25T11:44:25.620Z,35
2016-12-25T11:45:36.202Z,30
2016-12-25T11:46:46.423Z,25
2016-12-25T11:47:56.980Z,25
2016-12-25T11:49:07.941Z,20
2016-12-25T11:50:18.843Z,20
2016-12-25T11:51:29.751Z,20
2016-12-25T11:52:40.316Z,25
2016-12-25T11:53:50.882Z,25
2016-12-25T11:55:01.847Z,15
2016-12-25T11:56:12.764Z,15
2016-12-25T11:57:23.330Z,15
2016-12-25T11:58:33.898Z,20
2016-12-25T11:59:44.808Z,20
2016-12-25T12:00:55.425Z,25
2016-12-25T12:02:06.030Z,35
2016-12-25T12:03:16.939Z,35
2016-12-25T12:04:27.509Z,25
2016-12-25T12:05:38.417Z,30
2016-12-25T12:06:49.028Z,30
2016-12-25T12:07:59.932Z,20
2016-12-25T12:09:10.842Z,25
2016-12-25T12:10:21.407Z,25
2016-12-25T12:11:32.315Z,25
2016-12-25T12:12:43.273Z,25
2016-12-25T12:13:54.182Z,30
2016-12-25T12:15:04.747Z,30
2016-12-25T12:16:15.657Z,20
2016-12-25T12:17:26.226Z,25
2016-12-25T12:18:36.843Z,30
2016-12-25T12:19:47.408Z,25
2016-12-25T12:20:58.318Z,25
2016-12-25T12:22:08.891Z,30
2016-12-25T12:23:19.811Z,20
2016-12-25T12:24:30.425Z,20
2016-12-25T12:25:41.338Z,15
2016-12-25T12:26:52.247Z,20
2016-12-25T12:28:03.193Z,20
2016-12-25T12:29:13.758Z,20
2016-12-25T12:30:24.711Z,30
2016-12-25T12:31:35.276Z,25
2016-12-25T12:32:46.193Z,25
2016-12-25T12:33:56.751Z,25
2016-12-25T12:35:07.663Z,35
2016-12-25T12:36:18.621Z,30
2016-12-25T12:37:29.534Z,20
2016-12-25T12:38:40.451Z,25
2016-12-25T12:39:51.372Z,25
2016-12-25T12:41:01.953Z,25
2016-12-25T12:42:12.574Z,25
2016-12-25T12:43:23.151Z,30
2016-12-25T12:44:33.712Z,30
2016-12-25T12:45:44.625Z,25
2016-12-25T12:46:55.534Z,35
2016-12-25T12:48:06.499Z,30
2016-12-25T12:49:17.100Z,25
2016-12-25T12:50:27.661Z,30
2016-12-25T12:51:38.238Z,35
2016-12-25T12:52:49.151Z,35
2016-12-25T12:53:59.764Z,35
2016-12-25T12:55:10.345Z,40
2016-12-25T12:56:21.258Z,40
2016-12-25T12:57:32.163Z,40
2016-12-25T12:58:43.076Z,40
2016-12-25T12:59:53.689Z,45
2016-12-25T13:01:04.599Z,40
2016-12-25T13:02:15.191Z,40
2016-12-25T13:03:26.097Z,40
2016-12-25T13:04:36.325Z,35
2016-12-25T13:05:46.931Z,35
2016-12-25T13:06:57.495Z,35
2016-12-25T13:08:08.409Z,35
2016-12-25T13:09:19.310Z,35
2016-12-25T13:10:29.872Z,30
2016-12-25T13:11:40.552Z,35
2016-12-25T13:12:51.113Z,30
2016-12-25T13:14:02.022Z,30
2016-12-25T13:15:12.931Z,30
2016-12-25T13:16:23.848Z,30
2016-12-25T13:17:34.806Z,30
2016-12-25T13:18:45.723Z,30
2016-12-25T13:19:56.287Z,30
2016-12-25T13:21:06.865Z,25
2016-12-25T13:22:17.430Z,30
2016-12-25T13:23:28.387Z,30
2016-12-25T13:24:39.300Z,25
2016-12-25T13:25:49.869Z,25
2016-12-25T13:27:00.442Z,25
2016-12-25T13:28:11.003Z,30
2016-12-25T13:29:21.969Z,30
2016-12-25T13:30:32.882Z,25
2016-12-25T13:31:43.799Z,30
2016-12-25T13:32:54.708Z,25
2016-12-25T13:34:05.621Z,25
2016-12-25T13:35:16.579Z,25
2016-12-25T13:36:27.492Z,25
2016-12-25T13:37:38.409Z,25
2016-12-25T13:38:49.314Z,20
2016-12-25T13:39:59.875Z,20
2016-12-25T13:41:10.841Z,20
2016-12-25T13:42:21.754Z,20
2016-12-25T13:43:31.975Z,20
2016-12-25T13:44:42.540Z,20
2016-12-25T13:45:53.449Z,15
2016-12-25T13:47:04.450Z,15
2016-12-25T13:48:15.364Z,20
2016-12-25T13:49:25.933Z,15
2016-12-25T13:50:36.846Z,15
2016-12-25T13:51:47.415Z,20
2016-12-25T13:52:58.044Z,15
2016-12-25T13:54:08.960Z,15
2016-12-25T13:55:19.875Z,15
2016-12-25T13:56:30.776Z,15
2016-12-25T13:57:41.345Z,20
2016-12-25T13:58:52.306Z,15
2016-12-25T14:00:02.871Z,15
2016-12-25T14:01:13.096Z,15
2016-12-25T14:02:23.994Z,10
2016-12-25T14:03:34.563Z,10
2016-12-25T14:04:45.200Z,15
2016-12-25T14:05:55.765Z,10
2016-12-25T14:07:06.327Z,10
2016-12-25T14:08:16.919Z,10
2016-12-25T14:09:27.833Z,10
2016-12-25T14:10:38.998Z,10
2016-12-25T14:11:49.899Z,10
2016-12-25T14:13:00.465Z,10
2016-12-25T14:14:11.393Z,10
2016-12-25T14:15:21.963Z,10
2016-12-25T14:16:32.584Z,10
2016-12-25T14:17:43.161Z,10
2016-12-25T14:18:53.718Z,10
2016-12-25T14:20:04.635Z,10
2016-12-25T14:21:15.552Z,10
2016-12-25T14:22:26.165Z,5
2016-12-25T14:23:36.735Z,10
2016-12-25T14:24:47.648Z,10
2016-12-25T14:25:58.213Z,10
2016-12-25T14:27:09.127Z,5
2016-12-25T14:28:20.084Z,5
2016-12-25T14:29:30.997Z,5
2016-12-25T14:30:41.554Z,5
2016-12-25T14:31:52.455Z,5
2016-12-25T14:33:03.365Z,5
2016-12-25T14:34:14.326Z,5
2016-12-25T14:35:24.891Z,5
2016-12-25T14:36:35.804Z,5
2016-12-25T14:37:46.713Z,5
2016-12-25T14:38:57.275Z,5
2016-12-25T14:40:07.892Z,5
2016-12-25T14:41:18.457Z,5
2016-12-25T14:42:29.022Z,5
2016-12-25T14:43:39.596Z,5
2016-12-25T14:44:50.505Z,5
2016-12-25T14:46:01.122Z,5
2016-12-25T14:47:11.683Z,5
2016-12-25T14:48:22.249Z,5
2016-12-25T14:49:33.177Z,5
2016-12-25T14:50:44.087Z,5
2016-12-25T14:51:55.036Z,5
2016-12-25T14:53:05.949Z,0
2016-12-25T14:54:16.550Z,0
2016-12-25T14:55:27.119Z,0
2016-12-25T14:56:38.029Z,0
2016-12-25T14:57:49.006Z,0
2016-12-25T14:58:59.579Z,0
2016-12-25T15:00:10.145Z,0
2016-12-25T15:01:20.713Z,0
2016-12-25T15:02:31.279Z,0
2016-12-25T15:03:42.232Z,0
2016-12-25T15:04:52.797Z,0
2016-12-25T15:06:03.370Z,0
2016-12-25T15:07:14.276Z,0
2016-12-25T15:08:25.209Z,0
2016-12-25T15:09:36.174Z,0
2016-12-25T15:10:47.084Z,0
2016-12-25T15:11:57.652Z,0
2016-12-25T15:13:08.217Z,0
2016-12-25T15:14:19.125Z,0
2016-12-25T15:15:29.840Z,0
2016-12-25T15:16:40.753Z,0
2016-12-25T15:17:51.314Z,0
2016-12-25T15:19:01.896Z,0
2016-12-25T15:20:12.456Z,0
2016-12-25T15:21:23.422Z,0
2016-12-25T15:22:34.331Z,0
2016-12-25T15:23:44.892Z,0
2016-12-25T15:24:55.806Z,0
2016-12-25T15:26:06.371Z,0
2016-12-25T15:27:16.984Z,0
2016-12-25T15:28:27.893Z,0
2016-12-25T15:29:38.798Z,0
2016-12-25T15:30:49.704Z,0
2016-12-25T15:32:00.269Z,0
2016-12-25T15:33:11.226Z,0
2016-12-25T15:34:21.799Z,0
2016-12-25T15:35:32.720Z,0
2016-12-25T15:36:43.637Z,0
2016-12-25T15:37:54.539Z,0
2016-12-25T15:39:05.304Z,0
2016-12-25T15:40:15.869Z,0
2016-12-25T15:41:26.435Z,0
2016-12-25T15:42:37.011Z,0
2016-12-25T15:43:47.924Z,0
2016-12-25T15:44:58.534Z,0
2016-12-25T15:46:09.099Z,0
2016-12-25T15:47:20.015Z,0
2016-12-25T15:48:30.929Z,0
2016-12-25T15:49:41.847Z,0
2016-12-25T15:50:52.460Z,0
2016-12-25T15:52:03.021Z,0
2016-12-25T15:53:13.954Z,0
2016-12-25T15:54:24.875Z,0
2016-12-25T15:55:35.792Z,0
2016-12-25T15:56:46.750Z,0
2016-12-25T15:57:57.656Z,0
2016-12-25T15:59:08.568Z,0
2016-12-25T16:00:19.509Z,0
2016-12-25T16:01:30.082Z,0
2016-12-25T16:02:41.036Z,0
2016-12-25T16:03:51.601Z,0
2016-12-25T16:05:02.194Z,0
2016-12-25T16:06:13.119Z,0
2016-12-25T16:07:24.037Z,0
2016-12-25T16:08:35.026Z,0
2016-12-25T16:09:45.599Z,0
2016-12-25T16:10:56.544Z,0
2016-12-25T16:12:07.118Z,0
2016-12-25T16:13:18.032Z,0
2016-12-25T16:14:28.987Z,0
2016-12-25T16:15:39.589Z,0
2016-12-25T16:16:50.510Z,0
2016-12-25T16:18:01.079Z,0
2016-12-25T16:19:11.985Z,0
2016-12-25T16:20:22.606Z,0
2016-12-25T16:21:33.171Z,0
2016-12-25T16:22:46.988Z,0
2016-12-25T16:24:06.054Z,0
2016-12-25T16:25:23.723Z,0
2016-12-25T16:26:41.416Z,0
2016-12-25T16:27:57.566Z,0
2016-12-25T16:29:13.888Z,0
2016-12-25T16:30:32.521Z,0
2016-12-25T16:31:47.818Z,0
2016-12-25T16:33:03.451Z,0
2016-12-25T16:34:21.244Z,0
2016-12-25T16:35:36.718Z,0
2016-12-25T16:36:54.255Z,0
2016-12-25T16:38:10.737Z,0
2016-12-25T16:39:32.166Z,0
2016-12-25T16:40:48.607Z,0
2016-12-25T16:42:08.828Z,0
2016-12-25T16:43:26.566Z,0
2016-12-25T16:44:44.479Z,0
2016-12-25T16:45:59.784Z,0
2016-12-25T16:47:17.554Z,0
2016-12-25T16:48:35.339Z,0
2016-12-25T16:49:54.306Z,0
2016-12-25T16:51:10.662Z,0
2016-12-25T16:52:28.671Z,0
2016-12-25T16:53:43.252Z,0
2016-12-25T16:55:03.730Z,0
2016-12-25T16:56:19.439Z,0
2016-12-25T16:57:38.808Z,0
2016-12-25T16:58:58.838Z,0
2016-12-25T17:00:14.799Z,0
2016-12-25T17:01:32.285Z,0
2016-12-25T17:02:48.994Z,0
2016-12-25T17:04:02.799Z,0
2016-12-25T17:05:19.812Z,0
2016-12-25T17:06:38.236Z,0
2016-12-25T17:07:54.872Z,0
2016-12-25T17:09:14.689Z,0
2016-12-25T17:10:29.813Z,0
2016-12-25T17:11:46.379Z,0
2016-12-25T17:13:05.648Z,0
2016-12-25T17:14:24.233Z,0
2016-12-25T17:15:39.831Z,0
2016-12-25T17:16:54.736Z,0
2016-12-25T17:18:11.853Z,0
2016-12-25T17:19:33.146Z,0